East Peoria, Illinois
Current Conditions -  °F | °C
As of 5:54 AM on Thursday 29 Jan 2015 (Local Time) from KPIA Reporting Station
Broken Clouds Broken Clouds  
Wind Chill: 31°   Ceiling: 2500
Heat Index: 39°   Visibility: 9mi
Dew Point: 32°   Wind: 15mph
Humidity: 76%   Direction: 310°NW
Pressure: 29.78"   Gusts: 31mph
Location:  40.66°N, 89.59°W
Report Text: KPIA 291154Z 31013G27KT 9SM SCT016 BKN025 04/00 A2978 RMK AO2 PK WND 31030/1140 SLP089 T00390000 10056 20033 51034
Loading
Personal Weather Stations






























Interactive Weather Map New forecast layout! Learn more

10-Day Weather Forecast

Advertisements
Track Severe Weather on mobile